Time;durP1;ratioP1;P1;durP2;ratioP2;P2;SDS_P1;SDS_P2;PMS_P1;PMS_P2;Temp;Humidity;BMP_temperature;BMP_pressure;BME280_temperature;BME280_humidity;BME280_pressure;Samples;Min_cycle;Max_cycle;Signal;HPM_P1;HPM_P2
2023/01/08 00:00:39;;;;;;;6.00;3.38;;;;;;;9.66;62.54;99068.41;10344928;28;20060;-61
2023/01/08 00:05:41;;;;;;;6.07;3.78;;;;;;;9.60;62.71;99058.34;10344059;28;20049;-60
2023/01/08 00:10:43;;;;;;;5.88;3.70;;;;;;;9.69;62.48;99056.91;10345489;28;20061;-61
2023/01/08 00:15:44;;;;;;;4.50;2.92;;;;;;;9.76;62.35;99042.47;10347140;28;20058;-61
2023/01/08 00:20:47;;;;;;;5.93;3.40;;;;;;;9.76;62.34;99048.53;10343261;28;20053;-60
2023/01/08 00:25:49;;;;;;;5.97;3.17;;;;;;;9.76;62.50;99027.66;10346521;28;20550;-61
2023/01/08 00:30:51;;;;;;;5.97;2.97;;;;;;;9.81;62.33;99022.91;10344725;28;20111;-60
2023/01/08 00:35:52;;;;;;;5.97;3.40;;;;;;;9.87;62.15;99016.44;10346207;28;20188;-60
2023/01/08 00:40:54;;;;;;;5.68;3.17;;;;;;;9.82;62.26;99010.72;10344517;28;20057;-61
2023/01/08 00:45:56;;;;;;;5.45;2.90;;;;;;;9.91;62.11;99004.84;10345727;28;20055;-60
2023/01/08 00:51:01;;;;;;;9.82;5.50;;;;;;;9.88;62.07;99010.28;10344591;28;20513;-61
2023/01/08 00:56:06;;;;;;;8.93;4.10;;;;;;;9.94;62.08;99009.84;10344077;28;20064;-60
2023/01/08 01:01:10;;;;;;;5.25;2.85;;;;;;;9.94;62.04;99004.59;10342155;28;20502;-60
2023/01/08 01:06:13;;;;;;;5.28;3.05;;;;;;;9.97;62.17;98999.19;10344649;28;20050;-60
2023/01/08 01:11:23;;;;;;;6.85;2.92;;;;;;;10.10;61.27;98997.34;10343985;28;20054;-60
2023/01/08 01:16:26;;;;;;;5.13;3.15;;;;;;;10.01;61.70;99009.28;10343444;28;20192;-60
2023/01/08 01:21:30;;;;;;;4.88;3.13;;;;;;;10.03;61.73;99011.78;10343372;28;20053;-60
2023/01/08 01:26:32;;;;;;;5.20;2.83;;;;;;;10.01;61.83;99000.63;10344551;28;20058;-60
2023/01/08 01:31:34;;;;;;;4.47;2.95;;;;;;;10.08;61.68;99012.28;10343320;28;20057;-60
2023/01/08 01:36:36;;;;;;;4.32;2.80;;;;;;;10.11;61.73;99017.31;10343575;28;20054;-60
2023/01/08 01:41:46;;;;;;;4.07;2.80;;;;;;;10.05;62.04;99018.59;10342554;28;20054;-60
2023/01/08 01:46:48;;;;;;;6.65;3.40;;;;;;;10.17;61.76;99011.63;10342380;28;20529;-60
2023/01/08 01:51:54;;;;;;;5.53;3.10;;;;;;;10.18;61.77;99010.66;10341199;28;20053;-60
2023/01/08 01:56:57;;;;;;;6.35;3.75;;;;;;;10.24;61.73;99010.22;10342294;28;20050;-60
2023/01/08 02:01:59;;;;;;;6.07;3.97;;;;;;;10.27;61.65;99017.84;10341547;28;20062;-60
2023/01/08 02:07:10;;;;;;;5.45;3.00;;;;;;;10.32;61.01;99026.19;10341372;28;20053;-60
2023/01/08 02:12:18;;;;;;;;;;;;;;;10.08;61.78;99012.28;10339846;28;20050;-60
2023/01/08 02:17:35;;;;;;;6.60;2.70;;;;;;;10.29;61.46;99011.56;10342418;28;19925;-60
2023/01/08 02:22:36;;;;;;;5.18;2.85;;;;;;;10.39;61.15;98996.03;10341281;28;20058;-60
2023/01/08 02:27:41;;;;;;;6.35;3.10;;;;;;;10.42;61.40;98990.56;10343021;28;20060;-60
2023/01/08 02:32:43;;;;;;;5.82;3.20;;;;;;;10.38;61.59;98981.28;10342622;28;20041;-60
2023/01/08 02:37:44;;;;;;;4.78;2.88;;;;;;;10.30;61.76;98981.88;10343412;28;20076;-60
2023/01/08 02:43:06;;;;;;;7.03;3.70;;;;;;;10.21;62.95;98966.03;10340733;28;20049;-60
2023/01/08 02:48:12;;;;;;;6.70;2.95;;;;;;;10.12;63.35;98957.09;10327357;28;20490;-60
2023/01/08 02:53:20;;;;;;;6.30;3.00;;;;;;;10.08;64.07;98941.75;10341426;28;20053;-60
2023/01/08 02:58:24;;;;;;;4.28;2.53;;;;;;;9.99;64.19;98929.38;10342881;28;20058;-60
2023/01/08 03:03:28;;;;;;;4.57;2.85;;;;;;;9.92;64.71;98934.22;10347878;28;20418;-60
2023/01/08 03:08:34;;;;;;;5.10;3.00;;;;;;;9.89;65.13;98923.16;10347759;28;20582;-60
2023/01/08 03:13:40;;;;;;;5.43;3.10;;;;;;;9.76;65.77;98925.81;10348720;28;20054;-60
2023/01/08 03:18:49;;;;;;;4.20;2.72;;;;;;;9.60;66.15;98906.97;10348497;28;20053;-60
2023/01/08 03:23:52;;;;;;;3.78;2.70;;;;;;;9.63;65.95;98904.94;10350699;28;20053;-60
2023/01/08 03:28:56;;;;;;;3.60;2.60;;;;;;;9.58;66.26;98906.22;10356771;28;20042;-60
2023/01/08 03:34:01;;;;;;;4.95;2.30;;;;;;;9.51;66.33;98900.59;10356233;28;20043;-60
2023/01/08 03:39:13;;;;;;;4.40;2.67;;;;;;;9.46;66.89;98905.31;10355587;28;20068;-60
2023/01/08 03:44:15;;;;;;;3.50;2.33;;;;;;;9.49;66.73;98894.66;10355729;28;21162;-60
2023/01/08 03:49:17;;;;;;;5.75;2.88;;;;;;;9.58;66.47;98898.41;10354951;28;21008;-60
2023/01/08 03:54:23;;;;;;;3.38;2.20;;;;;;;9.50;66.68;98895.50;10357101;28;20061;-60
2023/01/08 03:59:25;;;;;;;3.80;2.35;;;;;;;9.53;66.77;98898.72;10355998;28;20093;-60
2023/01/08 04:04:27;;;;;;;4.95;2.45;;;;;;;9.53;66.53;98898.72;10350231;28;21381;-60
2023/01/08 04:09:28;;;;;;;3.97;2.58;;;;;;;9.56;66.63;98895.06;10349007;28;20096;-60
2023/01/08 04:14:30;;;;;;;3.85;2.05;;;;;;;9.45;66.59;98893.22;10348514;28;20734;-60
2023/01/08 04:19:31;;;;;;;5.30;2.30;;;;;;;9.33;67.05;98893.25;10345239;28;20057;-60
2023/01/08 04:24:33;;;;;;;4.63;1.90;;;;;;;9.22;66.77;98886.19;10347198;28;20060;-60
2023/01/08 04:29:35;;;;;;;2.97;1.90;;;;;;;9.18;67.15;98881.31;10347529;28;20060;-60
2023/01/08 04:34:36;;;;;;;3.67;2.10;;;;;;;9.11;67.39;98878.28;10347445;28;20058;-60
2023/01/08 04:39:38;;;;;;;3.13;1.77;;;;;;;9.11;67.17;98878.28;10348229;28;20053;-60
2023/01/08 04:44:39;;;;;;;5.07;1.65;;;;;;;9.18;67.17;98869.06;10347064;28;20046;-60
2023/01/08 04:49:41;;;;;;;3.17;1.77;;;;;;;9.24;66.89;98858.22;10346211;28;20057;-60
2023/01/08 04:54:43;;;;;;;2.03;1.42;;;;;;;9.22;66.92;98861.91;10347892;28;20054;-60
2023/01/08 04:59:44;;;;;;;2.92;1.92;;;;;;;9.29;66.77;98865.72;10342844;28;20668;-60
2023/01/08 05:04:47;;;;;;;3.50;1.80;;;;;;;9.33;66.63;98859.34;10346272;28;20053;-60
2023/01/08 05:09:48;;;;;;;3.78;1.75;;;;;;;9.33;66.54;98854.13;10346156;28;20532;-60
2023/01/08 05:14:50;;;;;;;2.38;1.50;;;;;;;9.36;66.07;98838.25;10345828;28;20053;-60
2023/01/08 05:19:51;;;;;;;3.00;1.80;;;;;;;9.27;66.58;98842.34;10343327;28;20054;-60
2023/01/08 05:24:53;;;;;;;2.83;1.90;;;;;;;9.29;66.70;98844.84;10344297;28;20528;-60
2023/01/08 05:29:55;;;;;;;3.50;1.88;;;;;;;9.21;66.34;98844.56;10343655;28;20461;-60
2023/01/08 05:34:56;;;;;;;4.25;1.77;;;;;;;9.15;66.96;98851.06;10336775;28;20140;-60
2023/01/08 05:39:58;;;;;;;2.47;1.88;;;;;;;9.10;67.32;98850.53;10342261;28;20061;-61
2023/01/08 05:45:01;;;;;;;2.78;1.83;;;;;;;9.09;67.43;98851.50;10337352;28;20046;-60
2023/01/08 05:50:03;;;;;;;3.53;2.05;;;;;;;9.08;67.29;98851.56;10340638;28;20046;-60
2023/01/08 05:55:05;;;;;;;3.63;2.25;;;;;;;9.05;67.46;98846.59;10340949;28;20053;-60
2023/01/08 06:00:09;;;;;;;4.45;2.45;;;;;;;8.90;67.91;98832.84;10338517;28;20065;-61
2023/01/08 06:05:10;;;;;;;3.25;1.85;;;;;;;8.86;68.01;98834.00;10337952;28;20057;-60
2023/01/08 06:10:12;;;;;;;3.60;2.20;;;;;;;8.87;68.02;98835.69;10340048;28;20061;-60
2023/01/08 06:15:14;;;;;;;4.32;2.78;;;;;;;8.79;68.31;98835.41;10334983;28;20050;-60
2023/01/08 06:20:15;;;;;;;3.55;2.53;;;;;;;8.84;68.25;98835.88;10337203;28;20054;-60
2023/01/08 06:25:17;;;;;;;6.20;3.15;;;;;;;8.83;68.47;98831.63;10340235;28;20061;-61
2023/01/08 06:30:19;;;;;;;5.05;2.63;;;;;;;8.72;68.69;98829.75;10344566;28;20049;-60
2023/01/08 06:35:20;;;;;;;2.85;2.00;;;;;;;8.91;68.48;98831.09;10343873;28;20393;-60
2023/01/08 06:40:23;;;;;;;3.22;2.10;;;;;;;8.99;68.14;98832.22;10344646;28;20058;-60
2023/01/08 06:45:24;;;;;;;5.03;1.65;;;;;;;9.00;67.75;98843.47;10343414;28;20517;-60
2023/01/08 06:50:27;;;;;;;3.92;2.08;;;;;;;9.12;67.78;98848.66;10342467;28;20084;-60
2023/01/08 06:55:28;;;;;;;3.75;1.90;;;;;;;9.19;67.52;98856.88;10342104;28;20497;-61
2023/01/08 07:00:30;;;;;;;3.65;2.40;;;;;;;9.21;67.43;98858.44;10347915;28;20058;-60
2023/01/08 07:05:32;;;;;;;3.20;1.98;;;;;;;9.24;67.20;98854.78;10351260;28;20072;-60
2023/01/08 07:10:33;;;;;;;3.13;2.00;;;;;;;9.19;67.16;98855.09;10350593;28;20054;-60
2023/01/08 07:15:36;;;;;;;2.90;2.10;;;;;;;9.16;67.48;98867.50;10351796;28;20057;-60
2023/01/08 07:20:38;;;;;;;3.75;2.22;;;;;;;9.22;67.32;98854.06;10349914;28;20057;-61
2023/01/08 07:25:39;;;;;;;3.65;2.10;;;;;;;9.27;67.05;98867.59;10349281;28;20133;-61
2023/01/08 07:30:42;;;;;;;3.47;2.13;;;;;;;9.30;66.94;98862.19;10350186;28;20058;-60
2023/01/08 07:35:49;;;;;;;4.30;2.67;;;;;;;9.26;67.18;98860.72;10349489;28;20072;-61
2023/01/08 07:40:51;;;;;;;4.20;2.40;;;;;;;9.30;67.04;98846.53;10348550;28;20410;-61
2023/01/08 07:45:53;;;;;;;3.65;1.83;;;;;;;9.31;66.94;98848.19;10348619;28;20061;-60
2023/01/08 07:51:00;;;;;;;3.58;2.20;;;;;;;9.33;67.05;98865.41;10348626;28;20046;-60
2023/01/08 07:56:04;;;;;;;4.47;3.20;;;;;;;9.30;67.02;98872.63;10348011;28;20077;-61
2023/01/08 08:01:09;;;;;;;3.80;2.30;;;;;;;9.28;67.03;98866.69;10347165;28;20053;-60
2023/01/08 08:06:11;;;;;;;3.65;2.13;;;;;;;9.24;66.79;98858.22;10350308;28;20054;-61
2023/01/08 08:11:12;;;;;;;4.18;2.00;;;;;;;9.15;66.69;98858.88;10346768;28;20085;-61
2023/01/08 08:16:14;;;;;;;4.95;2.20;;;;;;;9.21;66.49;98852.38;10347650;28;20049;-61
2023/01/08 08:21:16;;;;;;;4.00;2.50;;;;;;;9.25;66.38;98854.69;10347065;28;21152;-61
2023/01/08 08:26:18;;;;;;;3.50;1.90;;;;;;;9.34;66.58;98850.59;10347882;28;20050;-61
2023/01/08 08:31:19;;;;;;;3.55;2.08;;;;;;;9.35;66.31;98847.84;10347443;28;20072;-60
2023/01/08 08:36:27;;;;;;;4.05;2.47;;;;;;;9.40;66.19;98860.56;10347796;28;20054;-60
2023/01/08 08:41:29;;;;;;;4.07;1.70;;;;;;;9.37;66.28;98853.78;10345521;28;20062;-60
2023/01/08 08:46:30;;;;;;;3.10;1.70;;;;;;;9.36;65.97;98856.53;10347818;28;20049;-60
2023/01/08 08:51:32;;;;;;;4.82;2.75;;;;;;;9.43;66.00;98844.69;10345289;28;20051;-61
2023/01/08 08:56:34;;;;;;;3.30;2.40;;;;;;;9.50;65.92;98849.34;10347531;28;20065;-60
2023/01/08 09:01:35;;;;;;;3.20;1.90;;;;;;;9.58;65.60;98846.19;10344109;28;20058;-61
2023/01/08 09:06:37;;;;;;;3.75;2.30;;;;;;;9.64;65.83;98853.56;10346419;28;20053;-60
2023/01/08 09:11:39;;;;;;;4.70;2.00;;;;;;;9.56;65.72;98838.44;10343727;28;20508;-61
2023/01/08 09:16:40;;;;;;;3.28;1.77;;;;;;;9.56;65.52;98832.44;10345749;28;20054;-60
2023/01/08 09:21:42;;;;;;;3.80;1.85;;;;;;;9.65;65.75;98845.63;10343412;28;20057;-60
2023/01/08 09:26:44;;;;;;;2.92;1.70;;;;;;;9.77;65.64;98845.72;10345545;28;20819;-60
2023/01/08 09:31:45;;;;;;;2.55;1.60;;;;;;;9.82;65.07;98844.44;10345627;28;20054;-60
2023/01/08 09:36:48;;;;;;;2.80;1.40;;;;;;;9.91;64.43;98837.69;10341605;28;20177;-61
2023/01/08 09:41:51;;;;;;;5.90;1.80;;;;;;;9.87;64.93;98844.09;10339973;28;20053;-61
2023/01/08 09:46:54;;;;;;;2.78;1.38;;;;;;;9.94;64.58;98842.69;10341839;28;20057;-61
2023/01/08 09:51:57;;;;;;;5.57;3.90;;;;;;;9.86;64.49;98845.03;10340698;28;20060;-61
2023/01/08 09:56:59;;;;;;;3.47;1.83;;;;;;;10.07;64.11;98846.06;10340519;28;20049;-61
2023/01/08 10:02:03;;;;;;;4.40;2.10;;;;;;;10.26;63.63;98841.09;10332520;28;20061;-61
2023/01/08 10:07:20;;;;;;;3.95;1.70;;;;;;;10.35;63.41;98840.41;10341175;28;20068;-61
2023/01/08 10:12:27;;;;;;;6.43;3.03;;;;;;;10.37;63.05;98830.66;10340122;28;20065;-61
2023/01/08 10:17:59;;;;;;;14.77;9.70;;;;;;;10.36;63.15;98818.53;10335940;28;20041;-61
2023/01/08 10:23:12;;;;;;;5.70;3.60;;;;;;;10.47;62.60;98815.94;10335539;28;20056;-61
2023/01/08 10:28:19;;;;;;;2.67;1.52;;;;;;;10.54;62.54;98816.31;10341957;28;20056;-61
2023/01/08 10:33:29;;;;;;;3.35;1.95;;;;;;;10.48;62.34;98807.97;10336528;28;20050;-61
2023/01/08 10:38:34;;;;;;;3.40;1.50;;;;;;;10.54;62.35;98796.25;10340254;28;20050;-61
2023/01/08 10:43:53;;;;;;;2.58;1.42;;;;;;;10.48;61.89;98791.50;10334794;28;20050;-61
2023/01/08 10:48:59;;;;;;;3.53;1.30;;;;;;;10.59;62.02;98783.63;10342839;28;21054;-61
2023/01/08 10:54:14;;;;;;;3.78;1.80;;;;;;;10.47;61.37;98766.28;10341501;28;20049;-61
2023/01/08 10:59:23;;;;;;;2.97;1.42;;;;;;;10.30;61.69;98762.34;10341581;28;20610;-61
2023/01/08 11:04:31;;;;;;;2.10;1.10;;;;;;;10.20;62.06;98753.56;10340639;28;20060;-61
2023/01/08 11:09:40;;;;;;;2.60;1.10;;;;;;;10.13;61.79;98755.00;10342996;28;20064;-61
2023/01/08 11:14:45;;;;;;;3.05;1.40;;;;;;;10.14;61.79;98734.91;10338039;28;20434;-61
2023/01/08 11:19:46;;;;;;;3.50;1.20;;;;;;;10.21;61.73;98731.72;10342774;28;20833;-61
2023/01/08 11:24:52;;;;;;;2.53;1.20;;;;;;;10.42;61.51;98730.03;10341293;28;20050;-61
2023/01/08 11:30:05;;;;;;;3.60;1.30;;;;;;;10.69;60.14;98720.97;10340601;28;20584;-61
2023/01/08 11:35:27;;;;;;;2.40;1.23;;;;;;;10.89;59.38;98707.16;10340855;28;20071;-62
2023/01/08 11:40:44;;;;;;;2.80;1.00;;;;;;;10.75;59.77;98699.56;10320370;28;20049;-61
2023/01/08 11:45:52;;;;;;;2.15;1.10;;;;;;;10.82;60.02;98690.28;10342268;28;20049;-62
2023/01/08 11:51:18;;;;;;;1.70;1.15;;;;;;;10.91;59.22;98672.06;10339106;28;20042;-62
2023/01/08 11:56:38;;;;;;;2.95;1.40;;;;;;;11.03;59.42;98667.66;10347015;28;20649;-61
2023/01/08 12:01:47;;;;;;;1.85;1.10;;;;;;;11.04;58.93;98659.69;10343138;28;20058;-62
2023/01/08 12:06:59;;;;;;;2.67;1.27;;;;;;;11.50;58.72;98638.38;10345200;28;20056;-62
2023/01/08 12:12:34;;;;;;;4.13;1.10;;;;;;;11.39;57.60;98638.47;10347039;28;20054;-62
2023/01/08 12:18:01;;;;;;;1.92;1.20;;;;;;;11.12;58.04;98636.34;10340321;28;20068;-62
2023/01/08 12:23:17;;;;;;;1.90;1.38;;;;;;;10.96;58.31;98635.06;10346502;28;20425;-62
2023/01/08 12:28:49;;;;;;;2.13;1.15;;;;;;;11.05;58.39;98619.47;10345919;28;20056;-62
2023/01/08 12:33:56;;;;;;;2.75;1.40;;;;;;;11.22;58.52;98633.78;10341020;28;20042;-62
2023/01/08 12:39:05;;;;;;;1.65;1.08;;;;;;;10.91;58.65;98617.13;10338997;28;20058;-62
2023/01/08 12:44:10;;;;;;;2.80;1.17;;;;;;;10.76;59.16;98614.94;10341576;28;20058;-62
2023/01/08 12:49:22;;;;;;;0.80;0.80;;;;;;;10.77;58.90;98614.81;10345068;28;20060;-61
2023/01/08 12:55:02;;;;;;;2.65;1.30;;;;;;;10.88;58.97;98620.03;10342510;28;21592;-62
2023/01/08 13:00:35;;;;;;;2.55;1.20;;;;;;;10.89;59.19;98611.19;10341925;28;20069;-62
2023/01/08 13:05:37;;;;;;;1.58;1.20;;;;;;;10.89;59.30;98607.78;10341464;28;20050;-62
2023/01/08 13:10:54;;;;;;;2.03;1.40;;;;;;;10.90;59.50;98589.34;10341604;28;20053;-61
2023/01/08 13:16:18;;;;;;;2.53;1.20;;;;;;;10.57;60.30;98588.63;10339467;28;20053;-61
2023/01/08 13:21:33;;;;;;;3.10;1.15;;;;;;;10.59;60.50;98581.47;10341907;28;20053;-61
2023/01/08 13:26:35;;;;;;;2.20;1.20;;;;;;;10.53;60.22;98580.19;10342495;28;20061;-61
2023/01/08 13:31:39;;;;;;;2.80;1.38;;;;;;;10.27;60.83;98578.84;10339693;28;20061;-62
2023/01/08 13:36:41;;;;;;;1.10;1.00;;;;;;;10.40;60.74;98579.53;10343787;28;20050;-62
2023/01/08 13:41:55;;;;;;;3.53;1.20;;;;;;;10.31;60.26;98569.81;10336747;28;20057;-62
2023/01/08 13:46:59;;;;;;;1.45;1.10;;;;;;;10.30;60.22;98568.97;10339613;28;20050;-62
2023/01/08 13:52:01;;;;;;;2.20;1.20;;;;;;;10.30;60.65;98562.91;10341305;28;20048;-62
2023/01/08 13:57:13;;;;;;;2.65;1.20;;;;;;;10.27;60.59;98553.56;10340906;28;20049;-62
2023/01/08 14:02:28;;;;;;;1.25;1.10;;;;;;;10.28;59.70;98549.16;10340308;28;20537;-62
2023/01/08 14:07:30;;;;;;;2.80;1.33;;;;;;;10.49;59.70;98542.19;10340649;28;20061;-62
2023/01/08 14:12:33;;;;;;;3.05;1.30;;;;;;;10.30;59.61;98542.00;10338855;28;20042;-62
2023/01/08 14:17:35;;;;;;;2.15;1.00;;;;;;;10.05;59.27;98521.44;10338209;28;20045;-62
2023/01/08 14:22:40;;;;;;;2.78;1.20;;;;;;;10.02;59.22;98532.94;10333651;28;20060;-61
2023/01/08 14:27:52;;;;;;;3.10;1.50;;;;;;;9.97;59.35;98535.09;10337984;28;20061;-61
2023/01/08 14:32:56;;;;;;;3.13;1.20;;;;;;;9.87;59.02;98538.56;10338662;28;20085;-62
2023/01/08 14:38:00;;;;;;;2.42;1.17;;;;;;;10.01;58.54;98538.31;10339944;28;20412;-61
2023/01/08 14:43:07;;;;;;;2.88;1.10;;;;;;;9.99;58.37;98530.56;10338291;28;20064;-61
2023/01/08 14:48:20;;;;;;;3.33;1.10;;;;;;;10.06;58.15;98523.91;10341357;28;20046;-61
2023/01/08 14:53:35;;;;;;;3.10;1.10;;;;;;;10.11;58.23;98526.16;10340529;28;20038;-61
2023/01/08 14:58:40;;;;;;;3.17;1.33;;;;;;;9.84;58.31;98523.13;10338677;28;20064;-61
2023/01/08 15:03:44;;;;;;;3.00;1.20;;;;;;;9.77;58.61;98521.97;10335314;28;20237;-61
2023/01/08 15:08:46;;;;;;;3.10;1.35;;;;;;;9.60;58.90;98520.63;10338044;28;20307;-62
2023/01/08 15:13:49;;;;;;;3.90;1.48;;;;;;;9.57;59.27;98516.47;10342898;28;20042;-62
2023/01/08 15:18:59;;;;;;;2.83;1.50;;;;;;;9.68;58.68;98522.69;10340585;28;20050;-62
2023/01/08 15:24:02;;;;;;;3.08;1.40;;;;;;;9.72;59.11;98518.88;10347580;28;20050;-62
2023/01/08 15:29:05;;;;;;;3.47;1.50;;;;;;;9.70;59.03;98515.56;10350162;28;20053;-61
2023/01/08 15:34:07;;;;;;;3.35;1.70;;;;;;;9.69;59.26;98511.31;10349628;28;20056;-62
2023/01/08 15:39:09;;;;;;;4.57;1.80;;;;;;;9.64;58.95;98512.47;10348914;28;20046;-62
2023/01/08 15:44:14;;;;;;;3.63;1.70;;;;;;;9.72;59.46;98493.59;10350268;28;20053;-62
2023/01/08 15:49:15;;;;;;;3.15;1.30;;;;;;;9.63;59.20;98489.91;10348107;28;20052;-61
2023/01/08 15:54:19;;;;;;;2.65;1.50;;;;;;;9.61;58.81;98494.41;10349196;28;20057;-62
2023/01/08 15:59:21;;;;;;;3.55;1.40;;;;;;;9.56;58.87;98467.03;10348178;28;20065;-61
2023/01/08 16:04:22;;;;;;;5.15;1.50;;;;;;;9.53;59.81;98462.88;10347577;28;20057;-62
2023/01/08 16:09:24;;;;;;;3.25;1.40;;;;;;;9.45;59.54;98464.41;10349134;28;20061;-61
2023/01/08 16:14:25;;;;;;;2.85;1.30;;;;;;;9.29;59.81;98469.16;10347142;28;20041;-62
2023/01/08 16:19:29;;;;;;;3.53;1.45;;;;;;;9.07;60.40;98475.22;10342615;28;20050;-62
2023/01/08 16:24:31;;;;;;;3.40;1.38;;;;;;;9.06;60.48;98470.09;10342357;28;20073;-62
2023/01/08 16:29:33;;;;;;;2.47;1.30;;;;;;;8.99;60.47;98467.16;10343255;28;20046;-62
2023/01/08 16:34:34;;;;;;;3.53;1.50;;;;;;;8.92;60.48;98465.94;10343313;28;20050;-62
2023/01/08 16:39:37;;;;;;;3.33;1.40;;;;;;;8.87;60.63;98462.03;10347429;28;20057;-62
2023/01/08 16:44:39;;;;;;;3.38;1.50;;;;;;;8.85;60.54;98456.94;10348226;28;20053;-62
2023/01/08 16:49:41;;;;;;;4.07;1.65;;;;;;;8.74;60.83;98464.72;10345961;28;20050;-61
2023/01/08 16:54:43;;;;;;;6.20;1.80;;;;;;;8.75;60.85;98474.22;10344898;28;20058;-61
2023/01/08 16:59:45;;;;;;;3.38;1.50;;;;;;;8.78;60.51;98464.38;10344492;28;20149;-62
2023/01/08 17:04:46;;;;;;;3.67;1.50;;;;;;;8.88;60.26;98459.31;10345664;28;20506;-62
2023/01/08 17:09:48;;;;;;;5.72;1.75;;;;;;;8.98;60.31;98454.22;10346258;28;20486;-62
2023/01/08 17:14:50;;;;;;;6.82;2.08;;;;;;;9.08;60.16;98423.88;10344441;28;20213;-62
2023/01/08 17:19:51;;;;;;;5.82;1.70;;;;;;;9.09;59.97;98428.16;10346284;28;20438;-62
2023/01/08 17:24:53;;;;;;;5.07;1.60;;;;;;;9.15;59.77;98425.06;10345578;28;20576;-62
2023/01/08 17:29:55;;;;;;;3.70;1.52;;;;;;;9.19;59.88;98401.25;10346382;28;20046;-62
2023/01/08 17:34:56;;;;;;;2.65;1.40;;;;;;;9.21;59.46;98404.56;10345604;28;20053;-62
2023/01/08 17:40:00;;;;;;;3.35;1.50;;;;;;;9.19;59.74;98408.22;10346044;28;20050;-62
2023/01/08 17:45:04;;;;;;;3.92;1.58;;;;;;;9.20;59.48;98397.66;10343779;28;20054;-62
2023/01/08 17:50:06;;;;;;;3.47;1.42;;;;;;;9.20;59.41;98389.03;10339140;28;20050;-62
2023/01/08 17:55:08;;;;;;;2.15;1.33;;;;;;;9.13;59.49;98391.28;10343594;28;20053;-61
2023/01/08 18:00:10;;;;;;;4.32;1.60;;;;;;;9.10;59.61;98383.69;10345927;28;20241;-62
2023/01/08 18:05:12;;;;;;;3.25;1.60;;;;;;;9.20;59.88;98382.00;10344465;28;20054;-62
2023/01/08 18:10:13;;;;;;;5.35;1.50;;;;;;;9.23;59.73;98373.97;10340927;28;20058;-62
2023/01/08 18:15:15;;;;;;;4.72;1.45;;;;;;;9.23;59.87;98357.47;10343958;28;20050;-62
2023/01/08 18:20:17;;;;;;;3.67;1.58;;;;;;;9.26;59.72;98354.63;10344694;28;20149;-62
2023/01/08 18:25:19;;;;;;;3.70;1.50;;;;;;;9.22;59.85;98356.63;10341974;28;20410;-62
2023/01/08 18:30:21;;;;;;;2.50;1.42;;;;;;;9.18;59.75;98336.16;10344557;28;20049;-62
2023/01/08 18:35:22;;;;;;;4.70;1.60;;;;;;;9.20;59.71;98340.28;10344956;28;20426;-61
2023/01/08 18:40:24;;;;;;;4.93;1.50;;;;;;;9.17;59.95;98335.31;10343716;28;20058;-60
2023/01/08 18:45:28;;;;;;;3.92;1.83;;;;;;;9.16;59.90;98322.38;10343609;28;20418;-60
2023/01/08 18:50:29;;;;;;;4.63;1.70;;;;;;;9.23;60.16;98319.19;10345781;28;20060;-60
2023/01/08 18:55:31;;;;;;;4.22;1.65;;;;;;;9.23;60.05;98316.56;10347282;28;20057;-60
2023/01/08 19:00:33;;;;;;;4.78;2.20;;;;;;;9.20;60.53;98313.41;10353531;28;20054;-60
2023/01/08 19:05:41;;;;;;;7.22;2.13;;;;;;;9.24;60.62;98310.41;10351717;28;20836;-60
2023/01/08 19:10:43;;;;;;;4.55;2.00;;;;;;;9.15;60.75;98305.94;10347003;28;20057;-60
2023/01/08 19:15:45;;;;;;;5.47;2.08;;;;;;;9.13;60.93;98318.25;10351377;28;20053;-60
2023/01/08 19:20:48;;;;;;;3.78;1.80;;;;;;;9.05;60.83;98314.59;10342204;28;20506;-60
2023/01/08 19:25:50;;;;;;;4.50;1.60;;;;;;;9.06;61.12;98309.25;10349023;28;20057;-61
2023/01/08 19:30:56;;;;;;;4.63;1.90;;;;;;;9.02;61.39;98296.56;10348539;28;20049;-60
2023/01/08 19:36:07;;;;;;;3.55;2.00;;;;;;;8.95;61.40;98283.22;10340131;28;20049;-60
2023/01/08 19:46:38;;;;;;;3.97;1.90;;;;;;;8.78;62.36;98261.06;10346954;28;20065;-61
2023/01/08 19:51:40;;;;;;;4.15;2.00;;;;;;;8.82;62.32;98259.06;10348012;28;20054;-60
2023/01/08 19:56:42;;;;;;;4.05;2.10;;;;;;;8.91;62.27;98247.91;10346016;28;20061;-61
2023/01/08 20:01:44;;;;;;;3.50;1.80;;;;;;;8.91;62.29;98221.00;10344848;28;20060;-60
2023/01/08 20:06:47;;;;;;;4.57;2.15;;;;;;;8.85;62.50;98222.34;10346965;28;20896;-60
2023/01/08 20:11:48;;;;;;;5.30;2.55;;;;;;;8.77;62.72;98209.09;10348124;28;20072;-60
2023/01/08 20:16:50;;;;;;;5.88;2.38;;;;;;;8.73;63.31;98210.25;10346747;28;20046;-60
2023/01/08 20:21:51;;;;;;;4.65;2.40;;;;;;;8.80;62.93;98193.19;10346038;28;20870;-60
2023/01/08 20:26:54;;;;;;;4.07;1.98;;;;;;;8.72;63.64;98199.00;10343507;28;20184;-60
2023/01/08 20:31:58;;;;;;;5.05;2.28;;;;;;;8.71;63.45;98191.28;10345682;28;20060;-60
2023/01/08 20:36:59;;;;;;;3.65;2.15;;;;;;;8.73;63.45;98190.22;10346827;28;20053;-60
2023/01/08 20:42:01;;;;;;;3.38;1.75;;;;;;;8.73;63.27;98185.00;10345338;28;20064;-60
2023/01/08 20:47:05;;;;;;;3.75;2.05;;;;;;;8.63;63.32;98184.09;10346325;28;20506;-60
2023/01/08 20:52:06;;;;;;;4.78;2.50;;;;;;;8.56;63.51;98185.53;10347295;28;20054;-60
2023/01/08 20:57:08;;;;;;;4.35;2.13;;;;;;;8.51;63.42;98181.63;10346371;28;20418;-60
2023/01/08 21:02:10;;;;;;;6.85;2.00;;;;;;;8.45;63.68;98172.53;10344865;28;21110;-60
2023/01/08 21:07:12;;;;;;;3.45;1.90;;;;;;;8.51;63.60;98148.59;10342378;28;20065;-60
2023/01/08 21:12:14;;;;;;;4.38;1.80;;;;;;;8.48;63.66;98153.22;10345803;28;20050;-60
2023/01/08 21:17:16;;;;;;;3.72;1.80;;;;;;;8.51;63.67;98145.16;10343146;28;20053;-61
2023/01/08 21:22:18;;;;;;;4.18;2.40;;;;;;;8.57;63.68;98129.03;10347660;28;20060;-61
2023/01/08 21:27:19;;;;;;;5.72;1.92;;;;;;;8.58;63.60;98109.84;10343860;28;20056;-60
2023/01/08 21:32:21;;;;;;;3.65;1.80;;;;;;;8.53;63.68;98094.59;10342621;28;20050;-60
2023/01/08 21:37:22;;;;;;;3.20;1.80;;;;;;;8.53;63.55;98080.72;10344952;28;20058;-60
2023/01/08 21:47:44;;;;;;;5.53;2.00;;;;;;;8.49;63.86;98064.53;10345743;28;20490;-59
2023/01/08 21:58:06;;;;;;;3.10;1.77;;;;;;;8.57;63.90;98040.44;10344189;28;20050;-59
2023/01/08 22:03:08;;;;;;;3.70;1.83;;;;;;;8.71;63.77;98029.72;10344064;28;20050;-60
2023/01/08 22:08:17;;;;;;;2.88;1.70;;;;;;;8.71;63.71;98033.16;10343471;28;20071;-60
2023/01/08 22:13:18;;;;;;;3.28;1.88;;;;;;;8.62;64.11;98020.06;10342363;28;20043;-59
2023/01/08 22:18:20;;;;;;;5.93;2.50;;;;;;;8.59;64.21;98015.91;10343627;28;20414;-60
2023/01/08 22:23:21;;;;;;;3.67;2.00;;;;;;;8.58;64.38;98009.06;10341447;28;20065;-60
2023/01/08 22:28:25;;;;;;;5.28;2.40;;;;;;;8.64;64.09;98005.13;10342225;28;20053;-60
2023/01/08 22:33:26;;;;;;;4.10;2.00;;;;;;;8.73;63.99;97997.38;10342072;28;20546;-60
2023/01/08 22:38:28;;;;;;;4.57;2.20;;;;;;;8.75;63.90;97992.84;10342300;28;20068;-60
2023/01/08 22:43:30;;;;;;;3.90;2.45;;;;;;;8.72;64.04;97985.31;10341714;28;20052;-60
2023/01/08 22:48:31;;;;;;;4.18;2.25;;;;;;;8.64;64.49;97979.06;10341373;28;20562;-60
2023/01/08 22:53:34;;;;;;;4.63;2.35;;;;;;;8.68;64.86;97970.03;10342182;28;20049;-59
2023/01/08 22:58:40;;;;;;;4.13;2.60;;;;;;;8.68;65.14;97968.28;10342810;28;20149;-59
2023/01/08 23:03:43;;;;;;;3.80;2.47;;;;;;;8.71;65.18;97969.78;10341725;28;20049;-60
2023/01/08 23:08:45;;;;;;;3.95;2.90;;;;;;;8.72;65.46;97974.88;10342987;28;20415;-60
2023/01/08 23:13:47;;;;;;;5.85;2.90;;;;;;;8.77;65.75;97966.69;10342757;28;20041;-60
2023/01/08 23:18:49;;;;;;;4.53;3.03;;;;;;;8.76;65.91;97970.22;10326443;28;20049;-60
2023/01/08 23:23:51;;;;;;;5.70;3.75;;;;;;;8.78;66.09;97965.72;10343385;28;20112;-60
2023/01/08 23:28:54;;;;;;;5.07;3.60;;;;;;;8.71;66.43;97967.16;10342105;28;20064;-60
2023/01/08 23:33:56;;;;;;;4.50;3.25;;;;;;;8.67;66.57;97960.56;10341673;28;20046;-60
2023/01/08 23:38:58;;;;;;;5.50;3.70;;;;;;;8.74;66.65;97959.13;10342714;28;20054;-60
2023/01/08 23:44:03;;;;;;;4.75;3.40;;;;;;;8.77;66.57;97956.25;10347904;28;20057;-60
2023/01/08 23:49:06;;;;;;;6.55;4.03;;;;;;;8.78;66.73;97956.13;10349834;28;20612;-60
2023/01/08 23:54:09;;;;;;;7.40;3.90;;;;;;;8.75;66.94;97950.34;10349142;28;20104;-60
2023/01/08 23:59:11;;;;;;;6.35;3.30;;;;;;;8.77;67.02;97964.88;10348399;28;20085;-60
